createdAt,value
2023-04-29T00:00:18.612Z,77.57
2023-04-29T00:03:20.550Z,73.90
2023-04-29T00:06:23.262Z,74.88
2023-04-29T00:09:25.006Z,71.70
2023-04-29T00:12:26.901Z,73.60
2023-04-29T00:15:28.536Z,67.45
2023-04-29T00:18:30.086Z,71.38
2023-04-29T00:21:33.175Z,71.75
2023-04-29T00:24:34.777Z,69.30
2023-04-29T00:27:36.359Z,72.05
2023-04-29T00:30:37.988Z,71.10
2023-04-29T00:33:40.747Z,72.57
2023-04-29T00:36:42.300Z,77.25
2023-04-29T00:39:43.924Z,76.68
2023-04-29T00:42:45.525Z,98.45
2023-04-29T00:45:47.286Z,99.95
2023-04-29T00:48:49.767Z,97.93
2023-04-29T00:51:51.476Z,93.38
2023-04-29T00:54:53.178Z,103.78
2023-04-29T00:57:54.959Z,98.00
2023-04-29T01:00:56.766Z,107.88
2023-04-29T01:03:58.903Z,108.60
2023-04-29T01:07:14.415Z,112.97
2023-04-29T01:10:29.389Z,114.60
2023-04-29T01:13:42.670Z,110.45
2023-04-29T01:16:52.646Z,118.32
2023-04-29T01:19:58.353Z,120.25
2023-04-29T01:22:59.930Z,110.20
2023-04-29T01:26:01.951Z,123.80
2023-04-29T01:29:23.057Z,113.13
2023-04-29T01:33:19.940Z,123.05
2023-04-29T01:36:39.510Z,134.20
2023-04-29T01:39:56.630Z,134.25
2023-04-29T01:43:03.585Z,134.52
2023-04-29T01:46:14.699Z,141.20
2023-04-29T01:49:16.280Z,144.40
2023-04-29T01:52:17.923Z,161.75
2023-04-29T01:55:19.902Z,151.88
2023-04-29T01:58:21.610Z,149.30
2023-04-29T02:01:23.206Z,168.05
2023-04-29T02:04:28.661Z,167.45
2023-04-29T02:07:30.249Z,182.82
2023-04-29T02:10:31.842Z,163.40
2023-04-29T02:13:33.369Z,150.50
2023-04-29T02:16:35.068Z,141.00
2023-04-29T02:19:36.644Z,136.20
2023-04-29T02:22:38.258Z,121.95
2023-04-29T02:25:39.905Z,114.60
2023-04-29T02:28:41.468Z,113.32
2023-04-29T02:31:43.075Z,106.30
2023-04-29T02:34:45.301Z,102.07
2023-04-29T02:37:46.858Z,95.25
2023-04-29T02:40:48.900Z,99.38
2023-04-29T02:43:50.519Z,110.45
2023-04-29T02:46:52.110Z,98.75
2023-04-29T02:49:54.043Z,88.10
2023-04-29T02:52:55.696Z,117.95
2023-04-29T02:55:57.319Z,100.50
2023-04-29T02:58:58.917Z,106.25
2023-04-29T03:02:01.942Z,105.22
2023-04-29T03:05:06.991Z,88.65
2023-04-29T03:08:10.202Z,96.65
2023-04-29T03:11:11.808Z,85.78
2023-04-29T03:14:13.392Z,97.22
2023-04-29T03:17:15.471Z,90.65
2023-04-29T03:20:17.177Z,91.85
2023-04-29T03:23:18.744Z,79.40
2023-04-29T03:26:22.615Z,89.57
2023-04-29T03:29:25.265Z,76.32
2023-04-29T03:32:27.008Z,78.95
2023-04-29T03:35:28.671Z,82.63
2023-04-29T03:38:30.252Z,79.97
2023-04-29T03:41:31.885Z,82.18
2023-04-29T03:44:33.708Z,78.75
2023-04-29T03:47:35.911Z,68.05
2023-04-29T03:50:37.568Z,73.55
2023-04-29T03:53:39.790Z,71.50
2023-04-29T03:56:41.565Z,79.53
2023-04-29T03:59:43.144Z,68.35
2023-04-29T04:02:45.264Z,73.45
2023-04-29T04:05:47.197Z,74.10
2023-04-29T04:08:48.797Z,78.95
2023-04-29T04:11:50.431Z,71.70
2023-04-29T04:14:52.968Z,68.22
2023-04-29T04:17:54.770Z,73.88
2023-04-29T04:20:56.355Z,62.33
2023-04-29T04:23:58.040Z,61.75
2023-04-29T04:26:59.585Z,63.95
2023-04-29T04:30:01.128Z,65.43
2023-04-29T04:33:02.755Z,69.30
2023-04-29T04:36:04.642Z,59.33
2023-04-29T04:39:06.317Z,64.03
2023-04-29T04:42:07.912Z,65.38
2023-04-29T04:45:11.262Z,53.42
2023-04-29T04:48:12.838Z,67.40
2023-04-29T04:51:14.589Z,65.40
2023-04-29T04:54:16.169Z,61.83
2023-04-29T04:57:17.706Z,63.00
2023-04-29T05:00:19.510Z,60.42
2023-04-29T05:03:21.232Z,65.05
2023-04-29T05:06:23.023Z,63.75
2023-04-29T05:09:24.524Z,60.45
2023-04-29T05:12:35.167Z,66.22
2023-04-29T05:15:36.757Z,60.40
2023-04-29T05:18:38.438Z,54.72
2023-04-29T05:21:40.049Z,57.22
2023-04-29T05:24:41.600Z,60.47
2023-04-29T05:27:43.260Z,57.80
2023-04-29T05:30:45.084Z,62.92
2023-04-29T05:33:46.730Z,54.15
2023-04-29T05:36:48.324Z,57.38
2023-04-29T05:39:50.091Z,58.35
2023-04-29T05:42:52.000Z,60.95
2023-04-29T05:45:54.268Z,58.05
2023-04-29T05:48:55.892Z,57.22
2023-04-29T05:51:57.463Z,53.15
2023-04-29T05:54:59.086Z,59.47
2023-04-29T05:58:00.618Z,54.60
2023-04-29T06:01:03.017Z,55.58
2023-04-29T06:04:04.890Z,56.05
2023-04-29T06:07:08.954Z,53.17
2023-04-29T06:10:10.811Z,53.55
2023-04-29T06:13:14.269Z,51.70
2023-04-29T06:16:15.997Z,58.30
2023-04-29T06:19:17.572Z,59.25
2023-04-29T06:22:19.099Z,58.08
2023-04-29T06:25:20.638Z,54.47
2023-04-29T06:28:22.314Z,54.08
2023-04-29T06:31:23.890Z,50.80
2023-04-29T06:34:25.675Z,49.42
2023-04-29T06:37:28.649Z,55.75
2023-04-29T06:40:30.570Z,50.38
2023-04-29T06:43:32.115Z,50.25
2023-04-29T06:46:36.493Z,46.63
2023-04-29T06:49:38.070Z,54.47
2023-04-29T06:52:39.705Z,51.38
2023-04-29T06:55:41.461Z,50.03
2023-04-29T06:58:43.019Z,54.20
2023-04-29T07:01:45.331Z,45.30
2023-04-29T07:04:49.889Z,47.58
2023-04-29T07:07:51.720Z,51.55
2023-04-29T07:10:57.639Z,54.80
2023-04-29T07:13:59.294Z,51.03
2023-04-29T07:17:00.898Z,48.55
2023-04-29T07:20:04.005Z,53.10
2023-04-29T07:23:05.597Z,45.83
2023-04-29T07:26:11.802Z,49.40
2023-04-29T07:29:13.628Z,52.00
2023-04-29T07:32:15.733Z,55.80
2023-04-29T07:35:17.386Z,55.95
2023-04-29T07:38:18.934Z,51.30
2023-04-29T07:41:20.758Z,60.25
2023-04-29T07:44:22.488Z,58.10
2023-04-29T07:47:24.108Z,53.10
2023-04-29T07:50:25.824Z,54.03
2023-04-29T07:53:27.394Z,58.70
2023-04-29T07:56:29.006Z,60.60
2023-04-29T07:59:36.461Z,58.85
2023-04-29T08:02:38.327Z,63.17
2023-04-29T08:05:40.508Z,70.57
2023-04-29T08:08:42.492Z,70.20
2023-04-29T08:11:44.860Z,71.75
2023-04-29T08:14:46.432Z,69.55
2023-04-29T08:17:48.053Z,72.43
2023-04-29T08:20:49.601Z,67.53
2023-04-29T08:23:51.295Z,61.20
2023-04-29T08:26:53.437Z,70.10
2023-04-29T08:29:56.018Z,66.00
2023-04-29T08:32:57.595Z,69.72
2023-04-29T08:36:00.624Z,59.83
2023-04-29T08:39:02.580Z,72.32
2023-04-29T08:42:10.725Z,70.97
2023-04-29T08:45:15.711Z,74.72
2023-04-29T08:48:18.550Z,81.15
2023-04-29T08:51:20.552Z,66.38
2023-04-29T08:54:22.085Z,61.83
2023-04-29T08:57:25.657Z,69.95
2023-04-29T09:00:27.578Z,72.35
2023-04-29T09:03:42.703Z,72.53
2023-04-29T09:06:45.016Z,64.60
2023-04-29T09:09:47.476Z,70.97
2023-04-29T09:12:49.101Z,78.97
2023-04-29T09:15:50.784Z,68.80
2023-04-29T09:18:52.594Z,79.22
2023-04-29T09:21:58.290Z,70.53
2023-04-29T09:25:12.663Z,83.13
2023-04-29T09:28:17.684Z,73.22
2023-04-29T09:31:27.916Z,83.25
2023-04-29T09:34:35.958Z,67.88
2023-04-29T09:37:37.532Z,75.75
2023-04-29T09:40:56.776Z,78.55
2023-04-29T09:44:07.347Z,77.13
2023-04-29T09:47:10.449Z,70.57
2023-04-29T09:50:13.937Z,72.43
2023-04-29T09:53:29.437Z,70.22
2023-04-29T09:56:49.195Z,67.82
2023-04-29T09:59:50.767Z,65.00
2023-04-29T10:02:55.370Z,65.47
2023-04-29T10:05:58.425Z,67.45
2023-04-29T10:09:00.962Z,71.85
2023-04-29T10:12:05.051Z,62.42
2023-04-29T10:15:25.979Z,73.00
2023-04-29T10:18:37.247Z,71.47
2023-04-29T10:21:39.165Z,78.10
2023-04-29T10:24:45.175Z,72.63
2023-04-29T10:27:48.885Z,67.65
2023-04-29T10:30:55.893Z,70.07
2023-04-29T10:33:58.552Z,74.32
2023-04-29T10:37:00.402Z,64.80
2023-04-29T10:40:17.956Z,66.05
2023-04-29T10:43:24.387Z,56.55
2023-04-29T10:46:27.006Z,58.33
2023-04-29T10:49:34.273Z,54.67
2023-04-29T10:52:56.146Z,65.55
2023-04-29T10:56:13.387Z,57.25
2023-04-29T10:59:17.224Z,60.05
2023-04-29T11:02:20.726Z,54.80
2023-04-29T11:05:35.763Z,52.42
2023-04-29T11:08:39.820Z,53.75
2023-04-29T11:11:45.549Z,57.08
2023-04-29T11:14:51.617Z,52.78
2023-04-29T11:17:58.021Z,59.15
2023-04-29T11:21:08.648Z,63.38
2023-04-29T11:27:15.116Z,56.60
2023-04-29T11:30:18.371Z,56.97
2023-04-29T11:33:20.424Z,56.85
2023-04-29T11:36:22.162Z,54.30
2023-04-29T11:39:23.954Z,54.85
2023-04-29T11:42:25.499Z,50.42
2023-04-29T11:45:28.041Z,50.90
2023-04-29T11:48:30.260Z,54.90
2023-04-29T11:51:32.672Z,51.88
2023-04-29T11:54:34.308Z,45.58
2023-04-29T11:57:36.403Z,50.05
2023-04-29T12:00:38.396Z,45.90
2023-04-29T12:03:40.803Z,46.92
2023-04-29T12:06:42.700Z,43.85
2023-04-29T12:09:45.677Z,42.85
2023-04-29T12:12:48.211Z,42.85
2023-04-29T12:15:51.148Z,46.55
2023-04-29T12:18:53.689Z,49.95
2023-04-29T12:21:59.431Z,41.42
2023-04-29T12:25:07.287Z,40.85
2023-04-29T12:28:13.066Z,37.45
2023-04-29T12:31:16.722Z,39.92
2023-04-29T12:34:24.690Z,36.17
2023-04-29T12:37:26.711Z,37.38
2023-04-29T12:40:30.283Z,31.27
2023-04-29T12:43:33.670Z,34.05
2023-04-29T12:46:40.567Z,27.45
2023-04-29T12:49:44.216Z,30.20
2023-04-29T12:52:46.515Z,31.77
2023-04-29T12:55:48.755Z,27.73
2023-04-29T12:58:50.510Z,28.88
2023-04-29T13:01:52.138Z,24.85
2023-04-29T13:04:54.145Z,28.50
2023-04-29T13:07:56.728Z,25.88
2023-04-29T13:10:58.602Z,23.70
2023-04-29T13:14:00.198Z,23.70
2023-04-29T13:17:01.995Z,22.08
2023-04-29T13:20:05.032Z,24.05
2023-04-29T13:23:06.614Z,25.67
2023-04-29T13:26:08.905Z,20.65
2023-04-29T13:29:10.577Z,24.15
2023-04-29T13:32:12.264Z,26.92
2023-04-29T13:35:13.872Z,26.38
2023-04-29T13:38:15.643Z,25.92
2023-04-29T13:41:20.092Z,23.35
2023-04-29T13:44:32.767Z,23.92
2023-04-29T13:47:34.888Z,21.83
2023-04-29T13:59:56.107Z,18.88
2023-04-29T14:06:02.221Z,21.33
2023-04-29T14:09:04.386Z,18.23
2023-04-29T14:12:06.134Z,20.17
2023-04-29T14:15:07.939Z,19.77
2023-04-29T14:18:11.545Z,19.10
2023-04-29T14:21:13.786Z,19.10
2023-04-29T14:24:15.485Z,16.65
2023-04-29T14:27:17.063Z,18.70
2023-04-29T14:30:18.749Z,20.92
2023-04-29T14:33:20.437Z,19.38
2023-04-29T14:36:22.113Z,18.38
2023-04-29T14:39:23.688Z,20.85
2023-04-29T14:42:25.493Z,16.15
2023-04-29T14:45:28.112Z,21.35
2023-04-29T14:48:29.994Z,17.33
2023-04-29T14:51:31.685Z,20.25
2023-04-29T14:54:33.278Z,16.33
2023-04-29T14:57:35.012Z,15.02
2023-04-29T15:00:36.641Z,16.85
2023-04-29T15:03:43.519Z,14.80
2023-04-29T15:06:46.029Z,18.33
2023-04-29T15:09:47.858Z,17.60
2023-04-29T15:12:51.230Z,18.67
2023-04-29T15:15:52.866Z,15.45
2023-04-29T15:18:54.462Z,15.02
2023-04-29T15:21:56.214Z,15.88
2023-04-29T15:24:57.924Z,15.68
2023-04-29T15:27:59.639Z,16.33
2023-04-29T15:31:03.802Z,16.17
2023-04-29T15:34:05.433Z,14.38
2023-04-29T15:37:07.554Z,13.77
2023-04-29T15:40:09.926Z,15.77
2023-04-29T15:43:11.835Z,16.50
2023-04-29T15:46:14.033Z,15.85
2023-04-29T15:49:15.635Z,17.48
2023-04-29T15:52:17.719Z,15.05
2023-04-29T15:55:19.479Z,16.67
2023-04-29T15:58:21.036Z,17.00
2023-04-29T16:01:22.677Z,21.42
2023-04-29T16:04:24.450Z,18.88
2023-04-29T16:07:26.040Z,14.98
2023-04-29T16:10:27.554Z,15.95
2023-04-29T16:13:29.134Z,16.00
2023-04-29T16:16:30.961Z,13.50
2023-04-29T16:19:34.519Z,17.70
2023-04-29T16:22:38.110Z,16.23
2023-04-29T16:25:42.914Z,13.75
2023-04-29T16:28:45.189Z,14.27
2023-04-29T16:31:46.848Z,16.75
2023-04-29T16:34:48.499Z,13.98
2023-04-29T16:37:50.081Z,15.20
2023-04-29T16:40:52.005Z,16.52
2023-04-29T16:43:54.126Z,14.63
2023-04-29T16:46:55.756Z,15.65
2023-04-29T16:49:57.363Z,16.25
2023-04-29T16:52:58.946Z,12.35
2023-04-29T16:56:00.591Z,18.15
2023-04-29T16:59:02.324Z,12.73
2023-04-29T17:02:04.817Z,15.40
2023-04-29T17:05:08.896Z,12.70
2023-04-29T17:08:13.081Z,14.20
2023-04-29T17:11:14.600Z,15.18
2023-04-29T17:14:16.191Z,15.23
2023-04-29T17:17:18.678Z,15.55
2023-04-29T17:20:21.678Z,13.35
2023-04-29T17:23:23.241Z,14.70
2023-04-29T17:26:24.940Z,16.88
2023-04-29T17:29:26.497Z,19.42
2023-04-29T17:32:29.340Z,15.05
2023-04-29T17:35:32.911Z,14.35
2023-04-29T17:38:34.599Z,16.02
2023-04-29T17:41:37.215Z,11.35
2023-04-29T17:44:38.829Z,18.30
2023-04-29T17:47:40.378Z,15.32
2023-04-29T17:50:41.925Z,12.70
2023-04-29T17:53:43.470Z,14.15
2023-04-29T17:56:45.055Z,14.13
2023-04-29T17:59:48.114Z,14.88
2023-04-29T18:02:49.755Z,19.88
2023-04-29T18:05:51.336Z,14.18
2023-04-29T18:08:52.869Z,14.93
2023-04-29T18:11:54.448Z,16.23
2023-04-29T18:14:56.101Z,14.05
2023-04-29T18:17:57.809Z,15.82
2023-04-29T18:20:59.708Z,12.10
2023-04-29T18:24:01.347Z,17.30
2023-04-29T18:27:02.933Z,14.68
2023-04-29T18:30:05.014Z,16.42
2023-04-29T18:33:06.790Z,18.77
2023-04-29T18:36:09.042Z,16.13
2023-04-29T18:39:10.608Z,13.55
2023-04-29T18:42:12.241Z,13.40
2023-04-29T18:45:13.789Z,12.25
2023-04-29T18:48:15.552Z,15.35
2023-04-29T18:51:17.395Z,14.98
2023-04-29T18:54:19.102Z,15.25
2023-04-29T18:57:20.749Z,14.48
2023-04-29T19:00:22.443Z,13.73
2023-04-29T19:03:23.954Z,16.88
2023-04-29T19:06:25.513Z,15.52
2023-04-29T19:09:28.401Z,16.33
2023-04-29T19:12:29.974Z,15.55
2023-04-29T19:15:32.058Z,15.60
2023-04-29T19:18:33.692Z,19.52
2023-04-29T19:21:36.046Z,17.65
2023-04-29T19:24:38.851Z,17.48
2023-04-29T19:27:48.936Z,20.75
2023-04-29T19:30:50.737Z,22.17
2023-04-29T19:33:52.568Z,20.85
2023-04-29T19:36:54.165Z,18.98
2023-04-29T19:39:56.240Z,17.80
2023-04-29T19:42:57.983Z,20.70
2023-04-29T19:45:59.504Z,21.38
2023-04-29T19:49:01.792Z,20.77
2023-04-29T19:52:05.031Z,19.25
2023-04-29T19:55:08.837Z,26.88
2023-04-29T19:58:10.784Z,28.52
2023-04-29T20:01:12.473Z,26.90
2023-04-29T20:04:14.121Z,26.67
2023-04-29T20:07:15.681Z,30.23
2023-04-29T20:10:17.460Z,29.95
2023-04-29T20:13:19.103Z,28.85
2023-04-29T20:16:21.129Z,29.40
2023-04-29T20:19:22.729Z,31.55
2023-04-29T20:22:24.386Z,29.73
2023-04-29T20:25:27.364Z,27.27
2023-04-29T20:28:29.057Z,25.08
2023-04-29T20:31:31.024Z,25.17
2023-04-29T20:34:33.123Z,25.02
2023-04-29T20:37:34.738Z,26.67
2023-04-29T20:40:36.735Z,24.42
2023-04-29T20:43:38.343Z,25.15
2023-04-29T20:46:40.204Z,23.35
2023-04-29T20:49:42.643Z,25.65
2023-04-29T20:52:45.217Z,27.65
2023-04-29T20:55:47.767Z,24.77
2023-04-29T20:58:49.374Z,22.58
2023-04-29T21:01:51.275Z,25.70
2023-04-29T21:04:53.051Z,22.50
2023-04-29T21:07:54.669Z,18.67
2023-04-29T21:10:59.131Z,16.75
2023-04-29T21:14:00.699Z,18.20
2023-04-29T21:17:02.220Z,16.90
2023-04-29T21:20:04.671Z,17.58
2023-04-29T21:23:06.337Z,16.80
2023-04-29T21:26:18.810Z,22.30
2023-04-29T21:29:20.388Z,23.02
2023-04-29T21:32:22.153Z,17.40
2023-04-29T21:35:23.879Z,18.17
2023-04-29T21:38:25.447Z,17.98
2023-04-29T21:41:33.954Z,20.17
2023-04-29T21:44:38.490Z,22.98
2023-04-29T21:47:40.366Z,20.45
2023-04-29T21:50:42.814Z,25.50
2023-04-29T21:53:44.494Z,21.42
2023-04-29T21:56:46.076Z,19.60
2023-04-29T21:59:51.032Z,18.17
2023-04-29T22:02:52.661Z,18.92
2023-04-29T22:05:54.650Z,25.90
2023-04-29T22:08:56.236Z,20.77
2023-04-29T22:11:59.921Z,17.38
2023-04-29T22:15:01.663Z,21.77
2023-04-29T22:18:03.305Z,18.77
2023-04-29T22:21:05.540Z,19.35
2023-04-29T22:24:07.122Z,16.25
2023-04-29T22:27:08.727Z,25.02
2023-04-29T22:30:10.811Z,21.60
2023-04-29T22:33:15.139Z,23.00
2023-04-29T22:36:16.695Z,16.95
2023-04-29T22:39:18.627Z,18.33
2023-04-29T22:42:20.270Z,15.00
2023-04-29T22:45:21.840Z,21.10
2023-04-29T22:48:25.953Z,20.75
2023-04-29T22:51:29.152Z,22.50
2023-04-29T22:54:30.979Z,20.92
2023-04-29T22:57:32.749Z,21.23
2023-04-29T23:00:34.297Z,19.33
2023-04-29T23:03:36.004Z,20.08
2023-04-29T23:06:37.597Z,21.60
2023-04-29T23:09:39.174Z,20.13
2023-04-29T23:12:40.808Z,20.63
2023-04-29T23:15:42.649Z,18.27
2023-04-29T23:18:44.262Z,20.10
2023-04-29T23:21:45.862Z,17.88
2023-04-29T23:24:47.818Z,19.58
2023-04-29T23:27:49.368Z,19.35
2023-04-29T23:30:50.930Z,16.70
2023-04-29T23:33:52.513Z,18.05
2023-04-29T23:36:54.085Z,19.98
2023-04-29T23:39:57.173Z,23.83
2023-04-29T23:42:59.068Z,16.67
2023-04-29T23:46:00.999Z,18.50
2023-04-29T23:49:02.609Z,19.73
2023-04-29T23:52:05.629Z,20.35
2023-04-29T23:55:08.961Z,21.73
2023-04-29T23:58:10.715Z,19.13
